createdAt,value
2022-09-26T00:00:46.406Z,17.07
2022-09-26T00:03:26.968Z,16.22
2022-09-26T00:05:59.439Z,16.77
2022-09-26T00:08:27.920Z,17.33
2022-09-26T00:10:57.567Z,17.61
2022-09-26T00:13:25.299Z,17.81
2022-09-26T00:15:53.224Z,17.90
2022-09-26T00:18:21.099Z,18.00
2022-09-26T00:20:48.792Z,18.09
2022-09-26T00:23:16.651Z,18.16
2022-09-26T00:25:45.851Z,18.26
2022-09-26T00:28:13.413Z,18.15
2022-09-26T00:30:41.724Z,17.14
2022-09-26T00:33:10.063Z,16.26
2022-09-26T00:35:37.619Z,16.71
2022-09-26T00:38:05.895Z,17.36
2022-09-26T00:40:34.266Z,17.75
2022-09-26T00:43:01.936Z,17.92
2022-09-26T00:45:30.853Z,18.00
2022-09-26T00:48:01.554Z,18.08
2022-09-26T00:50:31.180Z,18.07
2022-09-26T00:53:02.548Z,17.99
2022-09-26T00:55:34.372Z,18.00
2022-09-26T00:58:04.515Z,17.94
2022-09-26T01:00:32.661Z,17.93
2022-09-26T01:03:00.529Z,17.82
2022-09-26T01:05:28.620Z,16.94
2022-09-26T01:07:57.288Z,15.99
2022-09-26T01:10:27.812Z,16.31
2022-09-26T01:12:56.094Z,16.71
2022-09-26T01:15:24.063Z,16.97
2022-09-26T01:17:51.930Z,17.19
2022-09-26T01:20:25.140Z,17.36
2022-09-26T01:23:19.609Z,17.57
2022-09-26T01:25:46.443Z,17.73
2022-09-26T01:28:26.705Z,17.71
2022-09-26T01:30:58.039Z,17.79
2022-09-26T01:33:34.114Z,17.96
2022-09-26T01:36:16.413Z,17.77
2022-09-26T01:38:51.304Z,16.29
2022-09-26T01:41:26.192Z,15.97
2022-09-26T01:43:56.779Z,16.51
2022-09-26T01:46:29.384Z,17.28
2022-09-26T01:49:05.380Z,17.06
2022-09-26T01:51:35.969Z,16.94
2022-09-26T01:54:06.110Z,17.01
2022-09-26T01:56:37.029Z,17.12
2022-09-26T01:59:07.144Z,17.28
2022-09-26T02:01:37.973Z,17.43
2022-09-26T02:04:09.291Z,17.58
2022-09-26T02:06:38.010Z,17.50
2022-09-26T02:09:08.377Z,17.59
2022-09-26T02:11:37.272Z,16.73
2022-09-26T02:14:06.727Z,15.44
2022-09-26T02:16:37.657Z,14.82
2022-09-26T02:19:09.798Z,15.53
2022-09-26T02:21:38.214Z,16.24
2022-09-26T02:24:06.545Z,16.68
2022-09-26T02:26:34.458Z,16.99
2022-09-26T02:29:02.223Z,17.12
2022-09-26T02:31:32.673Z,17.25
2022-09-26T02:34:00.512Z,17.42
2022-09-26T02:47:25.929Z,17.07
2022-09-26T02:50:01.349Z,15.68
2022-09-26T02:52:35.956Z,14.90
2022-09-26T02:55:10.214Z,15.58
2022-09-26T02:57:44.397Z,16.15
2022-09-26T03:00:17.416Z,16.48
2022-09-26T03:02:50.116Z,16.85
2022-09-26T03:05:20.373Z,17.13
2022-09-26T03:07:50.914Z,17.34
2022-09-26T03:10:19.580Z,17.48
2022-09-26T03:12:47.865Z,17.51
2022-09-26T03:15:17.388Z,17.60
2022-09-26T03:17:47.585Z,17.69
2022-09-26T03:20:18.529Z,16.72
2022-09-26T03:22:46.343Z,15.61
2022-09-26T03:25:15.880Z,15.96
2022-09-26T03:27:51.131Z,16.53
2022-09-26T03:30:20.637Z,16.85
2022-09-26T03:33:02.850Z,17.05
2022-09-26T03:35:30.908Z,17.09
2022-09-26T03:38:01.133Z,17.23
2022-09-26T03:40:30.077Z,17.35
2022-09-26T03:43:23.703Z,17.51
2022-09-26T03:45:52.206Z,17.66
2022-09-26T03:48:23.314Z,16.91
2022-09-26T03:50:51.081Z,15.65
2022-09-26T03:53:19.452Z,15.09
2022-09-26T03:55:47.779Z,15.69
2022-09-26T03:58:15.404Z,16.11
2022-09-26T04:00:44.221Z,16.40
2022-09-26T04:03:12.148Z,16.65
2022-09-26T04:05:40.232Z,16.63
2022-09-26T04:08:08.883Z,16.77
2022-09-26T04:10:37.686Z,16.92
2022-09-26T04:13:06.203Z,17.15
2022-09-26T04:15:34.759Z,17.39
2022-09-26T04:18:12.857Z,17.60
2022-09-26T04:20:41.030Z,17.56
2022-09-26T04:23:08.907Z,16.57
2022-09-26T04:25:37.583Z,15.53
2022-09-26T04:28:05.517Z,15.13
2022-09-26T04:30:33.834Z,15.90
2022-09-26T04:33:02.716Z,16.61
2022-09-26T04:35:37.139Z,17.07
2022-09-26T04:38:08.494Z,17.35
2022-09-26T04:40:40.752Z,17.59
2022-09-26T04:43:11.694Z,17.77
2022-09-26T04:45:40.909Z,17.90
2022-09-26T04:48:09.774Z,17.21
2022-09-26T04:50:58.434Z,15.91
2022-09-26T04:53:26.092Z,15.29
2022-09-26T04:56:09.801Z,16.09
2022-09-26T04:58:37.803Z,16.71
2022-09-26T05:01:07.243Z,16.96
2022-09-26T05:03:51.695Z,17.26
2022-09-26T05:06:19.935Z,17.36
2022-09-26T05:08:48.623Z,17.48
2022-09-26T05:11:21.068Z,17.56
2022-09-26T05:13:53.557Z,17.69
2022-09-26T05:16:23.480Z,17.73
2022-09-26T05:18:52.068Z,17.81
2022-09-26T05:21:21.057Z,16.98
2022-09-26T05:24:07.857Z,15.73
2022-09-26T05:26:40.346Z,15.14
2022-09-26T05:29:09.398Z,15.98
2022-09-26T05:31:52.787Z,16.74
2022-09-26T05:34:22.237Z,17.15
2022-09-26T05:36:51.464Z,17.41
2022-09-26T05:39:41.653Z,17.57
2022-09-26T05:42:11.377Z,17.87
2022-09-26T05:44:39.642Z,17.41
2022-09-26T05:47:08.088Z,15.98
2022-09-26T05:49:37.518Z,15.21
2022-09-26T05:52:05.490Z,15.86
2022-09-26T05:54:33.375Z,16.63
2022-09-26T05:57:02.858Z,17.12
2022-09-26T05:59:50.868Z,17.39
2022-09-26T06:02:24.942Z,17.59
2022-09-26T06:05:25.470Z,17.72
2022-09-26T06:08:13.175Z,17.89
2022-09-26T06:10:46.964Z,18.11
2022-09-26T06:13:15.330Z,18.04
2022-09-26T06:15:54.786Z,16.97
2022-09-26T06:18:22.855Z,15.94
2022-09-26T06:20:50.840Z,15.51
2022-09-26T06:23:18.794Z,16.39
2022-09-26T06:25:49.715Z,17.10
2022-09-26T06:28:18.926Z,17.47
2022-09-26T06:30:46.694Z,17.95
2022-09-26T06:33:34.834Z,17.96
2022-09-26T06:36:17.442Z,16.65
2022-09-26T06:38:45.964Z,15.92
2022-09-26T06:41:17.789Z,16.60
2022-09-26T06:43:45.857Z,17.37
2022-09-26T06:46:42.344Z,17.94
2022-09-26T06:49:14.762Z,18.37
2022-09-26T06:51:48.475Z,18.57
2022-09-26T06:54:17.464Z,18.62
2022-09-26T06:56:45.432Z,18.79
2022-09-26T06:59:16.602Z,18.25
2022-09-26T07:01:51.511Z,17.12
2022-09-26T07:04:38.530Z,16.69
2022-09-26T07:07:18.280Z,17.50
2022-09-26T07:09:46.645Z,18.07
2022-09-26T07:12:37.099Z,18.70
2022-09-26T07:15:07.090Z,18.72
2022-09-26T07:17:34.917Z,17.63
2022-09-26T07:20:21.952Z,17.00
2022-09-26T07:23:05.772Z,17.78
2022-09-26T07:25:34.555Z,18.44
2022-09-26T07:28:03.033Z,18.93
2022-09-26T07:30:44.398Z,19.30
2022-09-26T07:33:35.540Z,19.57
2022-09-26T07:36:09.334Z,19.67
2022-09-26T07:38:37.413Z,18.82
2022-09-26T07:41:10.417Z,17.90
2022-09-26T07:44:41.211Z,18.10
2022-09-26T07:46:45.361Z,18.94
2022-09-26T07:49:31.609Z,19.54
2022-09-26T07:52:11.492Z,19.76
2022-09-26T07:54:58.134Z,18.78
2022-09-26T07:57:46.342Z,17.68
2022-09-26T08:00:25.891Z,17.32
2022-09-26T08:03:04.819Z,18.22
2022-09-26T08:05:34.610Z,19.00
2022-09-26T08:08:04.373Z,19.41
2022-09-26T08:10:51.444Z,19.75
2022-09-26T08:13:19.101Z,19.96
2022-09-26T08:16:23.168Z,20.20
2022-09-26T08:18:54.059Z,20.12
2022-09-26T08:21:22.339Z,19.14
2022-09-26T08:23:53.407Z,18.06
2022-09-26T08:40:39.571Z,19.80
2022-09-26T08:43:33.652Z,18.61
2022-09-26T08:46:44.594Z,17.95
2022-09-26T08:49:41.459Z,18.90
2022-09-26T08:52:21.105Z,19.49
2022-09-26T08:54:50.455Z,19.84
2022-09-26T08:57:22.466Z,20.02
2022-09-26T08:59:50.841Z,20.20
2022-09-26T09:02:25.314Z,20.33
2022-09-26T09:05:00.840Z,20.46
2022-09-26T09:07:28.875Z,20.03
2022-09-26T09:09:59.590Z,18.96
2022-09-26T09:12:58.938Z,18.29
2022-09-26T09:15:44.385Z,19.10
2022-09-26T09:18:30.076Z,19.66
2022-09-26T09:21:26.098Z,19.94
2022-09-26T09:24:18.748Z,20.12
2022-09-26T09:29:53.255Z,20.54
2022-09-26T09:32:53.213Z,20.65
2022-09-26T09:35:38.681Z,20.17
2022-09-26T09:38:27.952Z,18.69
2022-09-26T09:41:04.511Z,18.45
2022-09-26T09:43:36.073Z,18.87
2022-09-26T09:46:05.111Z,19.49
2022-09-26T09:48:33.200Z,19.66
2022-09-26T09:51:06.051Z,19.60
2022-09-26T09:53:45.095Z,19.55
2022-09-26T09:56:18.477Z,19.58
2022-09-26T09:58:56.770Z,19.68
2022-09-26T10:01:27.351Z,19.68
2022-09-26T10:04:02.961Z,20.14
2022-09-26T10:06:45.314Z,20.04
2022-09-26T10:09:39.608Z,19.82
2022-09-26T10:12:29.271Z,19.89
2022-09-26T10:15:19.379Z,20.10
2022-09-26T10:18:23.910Z,20.34
2022-09-26T10:21:20.350Z,20.61
2022-09-26T10:23:50.237Z,20.63
2022-09-26T10:26:44.056Z,20.53
2022-09-26T10:29:22.000Z,20.45
2022-09-26T10:31:55.571Z,20.50
2022-09-26T10:34:25.855Z,20.63
2022-09-26T10:36:55.361Z,20.82
2022-09-26T10:39:58.124Z,20.30
2022-09-26T10:42:31.423Z,18.93
2022-09-26T10:45:11.740Z,19.14
2022-09-26T10:47:58.809Z,19.93
2022-09-26T10:51:06.104Z,20.06
2022-09-26T10:53:45.410Z,20.24
2022-09-26T10:56:23.340Z,20.82
2022-09-26T10:58:56.868Z,19.37
2022-09-26T11:01:26.091Z,18.69
2022-09-26T11:03:56.186Z,19.33
2022-09-26T11:06:26.815Z,19.81
2022-09-26T11:09:02.022Z,20.16
2022-09-26T11:11:51.503Z,20.33
2022-09-26T11:14:28.088Z,20.46
2022-09-26T11:17:09.060Z,21.04
2022-09-26T11:19:44.079Z,20.14
2022-09-26T11:22:19.008Z,19.07
2022-09-26T11:24:51.085Z,19.76
2022-09-26T11:27:26.448Z,20.81
2022-09-26T11:29:58.771Z,20.67
2022-09-26T11:32:28.947Z,19.37
2022-09-26T11:35:01.774Z,19.56
2022-09-26T11:37:47.273Z,20.03
2022-09-26T11:40:24.784Z,20.01
2022-09-26T11:43:04.698Z,20.55
2022-09-26T11:45:45.215Z,21.15
2022-09-26T11:48:44.215Z,21.66
2022-09-26T11:51:52.019Z,20.84
2022-09-26T11:54:32.632Z,20.66
2022-09-26T12:11:41.562Z,19.39
2022-09-26T12:14:15.661Z,20.48
2022-09-26T12:16:47.927Z,20.92
2022-09-26T12:19:20.714Z,20.27
2022-09-26T12:22:11.721Z,20.88
2022-09-26T12:24:46.242Z,20.30
2022-09-26T12:27:17.279Z,20.46
2022-09-26T12:29:46.985Z,21.01
2022-09-26T12:32:20.475Z,21.36
2022-09-26T12:34:57.272Z,21.25
2022-09-26T12:37:42.741Z,20.41
2022-09-26T12:40:23.059Z,19.68
2022-09-26T12:43:13.704Z,19.46
2022-09-26T12:45:53.018Z,20.45
2022-09-26T12:48:35.842Z,21.24
2022-09-26T12:51:14.885Z,21.34
2022-09-26T12:53:47.463Z,20.48
2022-09-26T12:56:21.881Z,19.59
2022-09-26T12:58:57.423Z,19.35
2022-09-26T13:01:44.047Z,19.94
2022-09-26T13:04:21.939Z,20.76
2022-09-26T13:07:20.685Z,20.70
2022-09-26T13:09:57.894Z,20.81
2022-09-26T13:12:32.910Z,20.50
2022-09-26T13:15:09.456Z,19.68
2022-09-26T13:17:40.869Z,18.96
2022-09-26T13:20:14.894Z,19.62
2022-09-26T13:22:45.589Z,21.25
2022-09-26T13:25:17.527Z,21.97
2022-09-26T13:27:48.081Z,22.50
2022-09-26T13:30:17.958Z,22.80
2022-09-26T13:32:51.908Z,22.69
2022-09-26T13:35:21.429Z,22.27
2022-09-26T13:38:00.137Z,22.21
2022-09-26T13:40:34.630Z,22.20
2022-09-26T13:43:10.004Z,22.26
2022-09-26T13:45:46.036Z,22.51
2022-09-26T13:48:17.930Z,23.12
2022-09-26T13:50:49.081Z,23.74
2022-09-26T13:53:21.017Z,23.99
2022-09-26T14:10:35.686Z,24.40
2022-09-26T14:13:07.861Z,24.36
2022-09-26T14:15:50.082Z,24.00
2022-09-26T14:18:32.462Z,23.23
2022-09-26T14:21:05.130Z,22.55
2022-09-26T14:23:32.650Z,22.12
2022-09-26T14:26:05.844Z,21.52
2022-09-26T14:28:35.213Z,20.79
2022-09-26T14:31:23.458Z,20.33
2022-09-26T14:34:05.179Z,19.77
2022-09-26T14:36:34.791Z,19.30
2022-09-26T14:39:04.052Z,18.89
2022-09-26T14:41:33.651Z,18.63
2022-09-26T14:44:03.011Z,19.40
2022-09-26T14:46:33.119Z,20.24
2022-09-26T14:49:04.871Z,19.94
2022-09-26T14:51:36.549Z,19.27
2022-09-26T14:54:06.462Z,18.72
2022-09-26T14:56:44.486Z,19.01
2022-09-26T14:59:27.281Z,20.26
2022-09-26T15:02:11.869Z,20.99
2022-09-26T15:04:41.544Z,20.67
2022-09-26T15:07:14.619Z,20.05
2022-09-26T15:09:44.008Z,19.52
2022-09-26T15:12:15.286Z,19.13
2022-09-26T15:14:45.393Z,18.81
2022-09-26T15:17:16.444Z,18.82
2022-09-26T15:19:48.763Z,19.92
2022-09-26T15:22:18.215Z,20.84
2022-09-26T15:24:46.173Z,20.61
2022-09-26T15:27:18.402Z,19.82
2022-09-26T15:29:47.638Z,19.21
2022-09-26T15:32:21.361Z,19.07
2022-09-26T15:34:50.561Z,20.12
2022-09-26T15:37:20.162Z,21.10
2022-09-26T15:39:47.919Z,21.49
2022-09-26T15:42:43.275Z,20.82
2022-09-26T15:45:16.841Z,19.95
2022-09-26T15:47:44.899Z,19.37
2022-09-26T15:50:13.837Z,19.18
2022-09-26T15:52:47.044Z,20.06
2022-09-26T15:55:18.073Z,20.92
2022-09-26T15:57:48.691Z,21.27
2022-09-26T16:00:17.647Z,20.57
2022-09-26T16:02:46.284Z,19.74
2022-09-26T16:05:14.513Z,19.11
2022-09-26T16:07:47.041Z,18.93
2022-09-26T16:10:21.806Z,19.88
2022-09-26T16:12:49.932Z,20.75
2022-09-26T16:15:18.415Z,21.03
2022-09-26T16:17:51.252Z,20.25
2022-09-26T16:20:18.341Z,19.34
2022-09-26T16:22:48.459Z,18.69
2022-09-26T16:25:32.209Z,18.51
2022-09-26T16:28:03.107Z,19.55
2022-09-26T16:30:41.865Z,20.35
2022-09-26T16:33:30.254Z,20.82
2022-09-26T16:36:04.121Z,21.03
2022-09-26T16:38:33.278Z,21.18
2022-09-26T16:41:07.725Z,21.10
2022-09-26T16:43:37.088Z,20.10
2022-09-26T16:46:08.730Z,19.13
2022-09-26T16:48:38.264Z,18.79
2022-09-26T16:51:13.770Z,19.57
2022-09-26T17:09:13.517Z,20.76
2022-09-26T17:11:41.786Z,19.56
2022-09-26T17:14:10.972Z,19.08
2022-09-26T17:16:38.942Z,19.61
2022-09-26T17:19:08.456Z,20.06
2022-09-26T17:21:36.320Z,20.37
2022-09-26T17:24:05.181Z,20.57
2022-09-26T17:26:34.455Z,20.77
2022-09-26T17:29:03.811Z,20.95
2022-09-26T17:31:34.246Z,21.01
2022-09-26T17:34:03.638Z,21.01
2022-09-26T17:36:31.611Z,20.97
2022-09-26T17:39:02.078Z,21.01
2022-09-26T17:41:32.512Z,21.10
2022-09-26T17:44:01.562Z,21.21
2022-09-26T17:46:29.735Z,21.30
2022-09-26T17:48:58.928Z,21.16
2022-09-26T17:51:26.754Z,20.15
2022-09-26T17:53:56.946Z,19.11
2022-09-26T17:56:25.808Z,18.66
2022-09-26T17:58:55.215Z,19.37
2022-09-26T18:01:24.943Z,20.05
2022-09-26T18:03:54.590Z,20.45
2022-09-26T18:06:24.706Z,20.63
2022-09-26T18:27:24.521Z,20.51
2022-09-26T18:29:52.502Z,19.46
2022-09-26T18:32:23.249Z,19.21
2022-09-26T18:34:51.516Z,19.61
2022-09-26T18:37:19.183Z,19.87
2022-09-26T18:39:52.141Z,20.09
2022-09-26T18:42:24.051Z,20.27
2022-09-26T18:44:55.706Z,20.40
2022-09-26T18:47:23.906Z,20.35
2022-09-26T18:49:52.534Z,20.34
2022-09-26T18:52:20.444Z,20.43
2022-09-26T18:55:09.148Z,20.53
2022-09-26T18:57:55.290Z,20.65
2022-09-26T19:00:23.533Z,20.74
2022-09-26T19:02:51.797Z,20.77
2022-09-26T19:05:20.018Z,20.83
2022-09-26T19:07:48.406Z,20.88
2022-09-26T19:10:17.251Z,20.96
2022-09-26T19:12:45.047Z,21.02
2022-09-26T19:15:14.508Z,20.84
2022-09-26T19:17:42.887Z,19.80
2022-09-26T19:20:10.663Z,18.98
2022-09-26T19:22:39.340Z,19.40
2022-09-26T19:25:09.771Z,19.92
2022-09-26T19:27:41.012Z,20.11
2022-09-26T19:30:11.996Z,20.20
2022-09-26T19:32:40.733Z,20.24
2022-09-26T19:35:15.406Z,20.31
2022-09-26T19:37:43.647Z,20.32
2022-09-26T19:40:13.558Z,20.24
2022-09-26T19:42:41.988Z,20.18
2022-09-26T19:45:11.125Z,20.13
2022-09-26T19:47:41.050Z,20.09
2022-09-26T19:50:13.452Z,19.98
2022-09-26T19:52:42.545Z,19.91
2022-09-26T19:55:14.007Z,19.91
2022-09-26T19:57:42.233Z,19.87
2022-09-26T20:00:12.095Z,19.94
2022-09-26T20:02:40.085Z,19.82
2022-09-26T20:05:15.529Z,19.72
2022-09-26T20:07:44.208Z,19.75
2022-09-26T20:10:18.658Z,19.83
2022-09-26T20:12:47.887Z,19.78
2022-09-26T20:15:16.440Z,19.67
2022-09-26T20:17:45.323Z,19.60
2022-09-26T20:20:15.136Z,19.54
2022-09-26T20:22:43.519Z,19.38
2022-09-26T20:25:15.065Z,19.22
2022-09-26T20:27:43.342Z,19.05
2022-09-26T20:30:31.767Z,19.08
2022-09-26T20:33:00.589Z,19.51
2022-09-26T20:35:33.169Z,19.08
2022-09-26T20:38:05.382Z,17.66
2022-09-26T20:40:33.827Z,17.59
2022-09-26T20:43:03.567Z,17.74
2022-09-26T20:45:34.203Z,17.95
2022-09-26T20:48:02.388Z,18.06
2022-09-26T20:50:33.985Z,18.13
2022-09-26T20:53:03.163Z,18.27
2022-09-26T20:55:32.567Z,18.38
2022-09-26T20:58:01.045Z,18.27
2022-09-26T21:00:29.842Z,18.29
2022-09-26T21:02:57.669Z,18.40
2022-09-26T21:05:26.901Z,18.53
2022-09-26T21:07:56.060Z,18.58
2022-09-26T21:10:25.146Z,18.74
2022-09-26T21:12:53.052Z,18.57
2022-09-26T21:15:22.251Z,18.59
2022-09-26T21:17:51.145Z,18.79
2022-09-26T21:20:21.974Z,18.61
2022-09-26T21:22:59.654Z,18.29
2022-09-26T21:25:28.517Z,18.22
2022-09-26T21:27:57.657Z,18.31
2022-09-26T21:30:25.901Z,18.38
2022-09-26T21:32:55.570Z,18.48
2022-09-26T21:35:24.849Z,18.58
2022-09-26T21:37:53.313Z,18.55
2022-09-26T21:40:22.656Z,18.40
2022-09-26T21:42:52.235Z,18.42
2022-09-26T21:45:27.131Z,18.55
2022-09-26T21:47:55.532Z,18.67
2022-09-26T21:50:25.451Z,18.72
2022-09-26T21:52:56.085Z,18.71
2022-09-26T21:55:29.431Z,18.70
2022-09-26T21:57:59.539Z,18.66
2022-09-26T22:00:27.852Z,18.72
2022-09-26T22:02:58.319Z,18.80
2022-09-26T22:05:26.299Z,18.72
2022-09-26T22:07:55.891Z,18.69
2022-09-26T22:10:24.306Z,18.66
2022-09-26T22:12:52.506Z,18.74
2022-09-26T22:15:21.317Z,18.63
2022-09-26T22:17:49.288Z,18.11
2022-09-26T22:20:17.154Z,17.91
2022-09-26T22:22:45.239Z,17.97
2022-09-26T22:25:13.135Z,17.90
2022-09-26T22:27:41.472Z,17.91
2022-09-26T22:30:10.694Z,18.08
2022-09-26T22:32:38.645Z,18.16
2022-09-26T22:35:07.729Z,18.01
2022-09-26T22:37:35.702Z,18.03
2022-09-26T22:40:04.182Z,18.10
2022-09-26T22:42:32.785Z,17.98
2022-09-26T22:45:00.582Z,18.09
2022-09-26T22:47:28.691Z,18.28
2022-09-26T22:49:56.662Z,17.84
2022-09-26T22:52:24.634Z,16.46
2022-09-26T22:54:52.569Z,15.43
2022-09-26T22:57:20.677Z,15.80
2022-09-26T22:59:48.745Z,16.35
2022-09-26T23:02:16.733Z,16.70
2022-09-26T23:04:47.059Z,16.94
2022-09-26T23:07:15.822Z,17.17
2022-09-26T23:09:43.869Z,17.26
2022-09-26T23:12:12.083Z,17.21
2022-09-26T23:14:39.967Z,17.10
2022-09-26T23:17:08.710Z,17.15
2022-09-26T23:19:36.884Z,17.29
2022-09-26T23:22:05.466Z,17.39
2022-09-26T23:24:33.642Z,17.31
2022-09-26T23:27:01.793Z,17.14
2022-09-26T23:29:29.574Z,17.16
2022-09-26T23:31:57.960Z,17.30
2022-09-26T23:34:25.783Z,17.33
2022-09-26T23:36:53.493Z,17.17
2022-09-26T23:39:21.556Z,17.05
2022-09-26T23:41:49.429Z,17.09
2022-09-26T23:44:17.286Z,17.12
2022-09-26T23:46:45.056Z,16.99
2022-09-26T23:49:12.943Z,16.84
2022-09-26T23:51:41.089Z,16.85
2022-09-26T23:54:09.258Z,16.87
2022-09-26T23:56:37.340Z,16.81
2022-09-26T23:59:05.457Z,16.96
